Time;durP1;ratioP1;P1;durP2;ratioP2;P2;SDS_P1;SDS_P2;PMS_P1;PMS_P2;Temp;Humidity;BMP_temperature;BMP_pressure;BME280_temperature;BME280_humidity;BME280_pressure;Samples;Min_cycle;Max_cycle;Signal;HPM_P1;HPM_P2
2022/02/06 00:02:00;;;;;;;4.35;1.05;;;11.20;72.60;;;;;;5094794;28;20441;-72
2022/02/06 00:04:26;;;;;;;2.97;0.80;;;11.20;72.70;;;;;;5098756;28;20020;-72
2022/02/06 00:06:52;;;;;;;4.43;1.08;;;11.10;72.10;;;;;;5097059;28;20020;-72
2022/02/06 00:09:18;;;;;;;4.25;0.90;;;11.10;72.50;;;;;;5098079;28;20031;-72
2022/02/06 00:11:44;;;;;;;2.58;0.70;;;11.10;73.20;;;;;;5098366;28;20403;-72
2022/02/06 00:14:10;;;;;;;4.93;0.80;;;11.10;73.90;;;;;;5095642;28;20071;-72
2022/02/06 00:16:36;;;;;;;3.55;0.77;;;11.10;73.70;;;;;;5078536;28;20459;-72
2022/02/06 00:19:02;;;;;;;3.90;0.80;;;11.10;73.50;;;;;;5099152;28;20040;-71
2022/02/06 00:21:30;;;;;;;4.50;0.80;;;11.10;73.90;;;;;;5097998;28;20575;-72
2022/02/06 00:23:56;;;;;;;2.40;0.63;;;11.10;73.90;;;;;;5097943;28;20111;-71
2022/02/06 00:26:38;;;;;;;3.53;0.70;;;11.10;73.90;;;;;;5079009;28;20099;-71
2022/02/06 00:31:36;;;;;;;2.63;0.90;;;11.10;73.80;;;;;;5097995;28;20028;-71
2022/02/06 00:39:27;;;;;;;2.97;1.08;;;11.10;74.50;;;;;;5097476;28;20051;-72
2022/02/06 00:41:52;;;;;;;3.40;0.65;;;11.20;74.40;;;;;;5097637;28;20012;-72
2022/02/06 00:44:18;;;;;;;4.43;0.82;;;11.10;74.30;;;;;;5078546;28;20064;-72
2022/02/06 00:46:45;;;;;;;3.30;0.70;;;11.10;74.60;;;;;;5094063;28;20073;-72
2022/02/06 00:49:25;;;;;;;5.13;0.88;;;11.10;75.30;;;;;;5098977;28;20484;-72
2022/02/06 00:51:57;;;;;;;3.40;0.90;;;11.10;74.80;;;;;;5097813;28;20016;-72
2022/02/06 00:54:22;;;;;;;3.30;0.80;;;11.20;75.20;;;;;;5097078;28;20032;-73
2022/02/06 00:56:49;;;;;;;3.42;0.93;;;11.20;75.30;;;;;;5096944;28;20024;-72
2022/02/06 00:59:15;;;;;;;3.72;0.73;;;11.20;74.60;;;;;;5095388;28;20039;-72
2022/02/06 01:01:42;;;;;;;4.32;0.73;;;11.30;74.80;;;;;;5094035;28;20384;-71
2022/02/06 01:04:09;;;;;;;3.00;0.70;;;11.30;75.40;;;;;;5099241;28;20115;-72
2022/02/06 01:06:35;;;;;;;3.15;0.60;;;11.30;75.30;;;;;;5096958;28;20024;-71
2022/02/06 01:09:00;;;;;;;3.72;0.80;;;11.20;75.00;;;;;;5096927;28;20107;-72
2022/02/06 01:11:26;;;;;;;3.15;0.82;;;11.20;74.70;;;;;;5078901;28;20399;-72
2022/02/06 01:16:34;;;;;;;3.42;0.70;;;11.20;76.20;;;;;;5106643;28;20447;-71
2022/02/06 01:19:05;;;;;;;4.28;0.70;;;11.20;75.30;;;;;;5098137;28;20452;-71
2022/02/06 01:24:14;;;;;;;2.72;0.52;;;11.30;75.00;;;;;;5096634;28;20024;-70
2022/02/06 01:26:54;;;;;;;3.17;0.80;;;11.30;74.90;;;;;;5096538;28;20023;-70
2022/02/06 01:29:38;;;;;;;2.75;0.77;;;11.30;75.50;;;;;;5095868;28;20055;-71
2022/02/06 01:32:09;;;;;;;3.58;0.70;;;11.30;75.70;;;;;;5078547;28;20103;-70
2022/02/06 01:37:22;;;;;;;3.67;0.60;;;11.30;75.60;;;;;;5097948;28;20024;-70
2022/02/06 01:40:06;;;;;;;1.30;0.40;;;11.30;75.30;;;;;;5096227;28;20047;-71
2022/02/06 01:42:42;;;;;;;3.58;0.57;;;11.30;74.90;;;;;;5096434;28;20028;-70
2022/02/06 02:04:13;;;;;;;2.63;0.50;;;11.40;75.90;;;;;;5097852;28;20028;-70
2022/02/06 02:31:46;;;;;;;3.08;0.60;;;11.40;75.20;;;;;;5033770;28;20041;-70
2022/02/06 02:47:15;;;;;;;3.40;0.65;;;11.50;76.20;;;;;;4957152;28;20121;-70
2022/02/06 02:49:47;;;;;;;4.38;0.70;;;11.50;75.50;;;;;;4970996;28;20046;-71
2022/02/06 02:52:22;;;;;;;2.92;0.50;;;11.60;75.80;;;;;;4971721;28;20106;-71
2022/02/06 02:54:54;;;;;;;5.05;1.00;;;11.50;75.60;;;;;;4970791;28;20428;-71
2022/02/06 02:57:30;;;;;;;4.30;0.57;;;11.50;74.70;;;;;;4970812;28;20032;-71
2022/02/06 03:00:18;;;;;;;4.40;0.60;;;11.50;76.10;;;;;;4971040;28;20066;-70
2022/02/06 03:02:44;;;;;;;3.42;1.15;;;11.50;75.80;;;;;;5007936;28;20509;-70
2022/02/06 03:05:10;;;;;;;2.60;0.55;;;11.50;75.60;;;;;;5011644;28;20025;-70
2022/02/06 03:07:36;;;;;;;3.90;1.00;;;11.50;76.50;;;;;;5028853;28;20026;-70
2022/02/06 03:10:02;;;;;;;4.05;0.80;;;11.50;76.80;;;;;;5027891;28;20521;-71
2022/02/06 03:12:30;;;;;;;4.82;0.93;;;11.40;77.30;;;;;;5026208;28;20108;-71
2022/02/06 03:15:05;;;;;;;3.92;0.70;;;11.40;76.20;;;;;;5043733;28;20074;-71
2022/02/06 03:17:44;;;;;;;4.68;0.73;;;11.40;76.60;;;;;;5106093;28;20020;-71
2022/02/06 03:20:17;;;;;;;4.32;0.95;;;11.40;76.90;;;;;;5093287;28;20492;-71
2022/02/06 03:22:53;;;;;;;3.33;0.77;;;11.30;76.80;;;;;;5098687;28;20499;-71
2022/02/06 03:25:21;;;;;;;2.63;0.80;;;11.40;76.90;;;;;;5103546;28;20027;-71
2022/02/06 03:27:48;;;;;;;3.22;0.68;;;11.40;76.80;;;;;;5083042;28;20028;-70
2022/02/06 03:30:14;;;;;;;3.22;0.70;;;11.40;76.70;;;;;;5101523;28;20019;-70
2022/02/06 03:32:40;;;;;;;4.55;0.65;;;11.40;77.20;;;;;;5101650;28;20020;-71
2022/02/06 03:35:06;;;;;;;4.03;0.70;;;11.50;77.30;;;;;;5098583;28;20089;-70
2022/02/06 03:37:32;;;;;;;4.18;0.60;;;11.50;76.90;;;;;;5082915;28;20089;-70
2022/02/06 03:40:00;;;;;;;3.40;0.70;;;11.50;77.00;;;;;;5083882;28;20457;-70
2022/02/06 03:42:33;;;;;;;2.78;0.85;;;11.50;77.80;;;;;;5099581;28;20020;-70
2022/02/06 03:45:04;;;;;;;5.00;0.90;;;11.50;76.70;;;;;;5101362;28;20035;-70
2022/02/06 03:47:46;;;;;;;3.90;0.68;;;11.40;77.20;;;;;;5101234;28;20020;-70
2022/02/06 03:50:12;;;;;;;3.08;0.70;;;11.50;77.90;;;;;;5098982;28;20110;-71
2022/02/06 03:52:46;;;;;;;3.05;0.57;;;11.50;78.10;;;;;;5099121;28;20487;-71
2022/02/06 03:55:19;;;;;;;3.85;0.77;;;11.40;78.30;;;;;;5101905;28;20576;-71
2022/02/06 03:57:49;;;;;;;;;;;11.40;78.50;;;;;;5101210;28;20028;-71
2022/02/06 04:00:16;;;;;;;3.78;0.80;;;11.40;77.10;;;;;;5101148;28;19923;-71
2022/02/06 04:02:42;;;;;;;3.15;0.85;;;11.40;77.70;;;;;;5101407;28;20016;-71
2022/02/06 04:05:09;;;;;;;3.17;0.60;;;11.50;78.10;;;;;;5098436;28;20020;-71
2022/02/06 04:07:35;;;;;;;4.38;0.75;;;11.50;77.50;;;;;;5100045;28;20381;-71
2022/02/06 04:10:00;;;;;;;3.83;0.75;;;11.50;78.10;;;;;;5101999;28;20508;-72
2022/02/06 04:12:27;;;;;;;3.80;0.75;;;11.50;77.50;;;;;;5101177;28;20030;-70
2022/02/06 04:14:55;;;;;;;4.22;0.80;;;11.50;77.10;;;;;;5100931;28;20036;-71
2022/02/06 04:17:25;;;;;;;4.38;0.88;;;11.40;77.50;;;;;;5100056;28;20027;-71
2022/02/06 04:19:52;;;;;;;2.92;0.70;;;11.50;78.10;;;;;;5095896;28;20504;-71
2022/02/06 04:22:18;;;;;;;3.97;0.90;;;11.50;78.30;;;;;;5102530;28;20032;-70
2022/02/06 04:24:44;;;;;;;2.83;0.63;;;11.50;78.00;;;;;;5100728;28;20107;-71
2022/02/06 04:27:10;;;;;;;2.72;1.00;;;11.50;78.40;;;;;;5100787;28;20095;-71
2022/02/06 04:29:36;;;;;;;3.95;1.00;;;11.50;78.00;;;;;;5082882;28;20061;-71
2022/02/06 04:32:03;;;;;;;3.00;0.68;;;11.50;77.70;;;;;;5095920;28;20020;-70
2022/02/06 04:34:30;;;;;;;3.47;0.75;;;11.50;78.30;;;;;;5098090;28;20063;-70
2022/02/06 05:29:20;;;;;;;2.58;0.60;;;11.60;78.80;;;;;;5093126;28;20023;-70
2022/02/06 05:34:17;;;;;;;4.38;0.90;;;11.60;78.50;;;;;;5098619;28;20032;-70
2022/02/06 05:36:43;;;;;;;2.42;0.73;;;11.60;79.00;;;;;;5096637;28;20027;-70
2022/02/06 05:39:09;;;;;;;2.33;0.70;;;11.70;79.20;;;;;;5076367;28;20382;-70
2022/02/06 05:41:35;;;;;;;3.35;0.70;;;11.70;79.10;;;;;;5096452;28;20092;-71
2022/02/06 05:44:02;;;;;;;3.08;0.73;;;11.70;79.60;;;;;;5091563;28;20028;-70
2022/02/06 05:46:28;;;;;;;2.28;0.57;;;11.70;79.00;;;;;;5096802;28;20040;-71
2022/02/06 05:48:53;;;;;;;1.23;0.50;;;11.70;78.60;;;;;;5097127;28;20095;-71
2022/02/06 05:51:19;;;;;;;4.13;0.70;;;11.70;79.00;;;;;;5096365;28;20388;-72
2022/02/06 05:53:45;;;;;;;4.53;1.05;;;11.70;79.30;;;;;;5095863;28;20395;-72
2022/02/06 05:56:11;;;;;;;3.63;0.80;;;11.70;78.90;;;;;;5093815;28;20020;-72
2022/02/06 05:58:37;;;;;;;3.13;0.80;;;11.70;79.40;;;;;;5094551;28;20036;-72
2022/02/06 06:01:03;;;;;;;3.67;0.70;;;11.70;79.30;;;;;;5097735;28;20036;-71
2022/02/06 06:03:29;;;;;;;3.28;0.70;;;11.70;80.20;;;;;;5096097;28;20423;-72
2022/02/06 06:05:54;;;;;;;3.83;0.80;;;11.70;81.50;;;;;;5096049;28;20085;-72
2022/02/06 06:08:20;;;;;;;3.58;0.70;;;11.70;79.50;;;;;;5094508;28;20530;-72
2022/02/06 06:10:46;;;;;;;5.97;0.75;;;11.70;80.40;;;;;;5092525;28;20024;-72
2022/02/06 06:13:12;;;;;;;4.78;0.75;;;11.80;79.70;;;;;;5105616;27;20147;-72
2022/02/06 06:15:38;;;;;;;6.43;1.00;;;11.70;80.20;;;;;;5055359;28;20430;-72
2022/02/06 06:18:06;;;;;;;4.78;0.90;;;11.70;80.50;;;;;;5054216;28;20040;-72
2022/02/06 06:20:34;;;;;;;4.88;0.77;;;11.70;79.80;;;;;;5055042;28;20562;-72
2022/02/06 06:23:00;;;;;;;3.30;0.65;;;11.70;80.70;;;;;;5051461;28;20029;-72
2022/02/06 06:25:33;;;;;;;4.78;0.93;;;11.70;80.90;;;;;;5055171;28;20039;-71
2022/02/06 06:27:58;;;;;;;6.30;1.10;;;11.70;80.20;;;;;;5054077;28;20378;-71
2022/02/06 06:30:24;;;;;;;5.38;1.40;;;11.70;79.90;;;;;;5054771;28;20556;-72
2022/02/06 06:32:50;;;;;;;4.90;1.08;;;11.80;80.30;;;;;;5054867;28;20051;-71
2022/02/06 06:35:16;;;;;;;5.72;1.00;;;11.80;79.70;;;;;;5050529;28;20083;-71
2022/02/06 06:37:42;;;;;;;4.80;1.20;;;11.80;80.00;;;;;;5050223;28;20025;-72
2022/02/06 06:40:08;;;;;;;6.35;1.10;;;11.80;80.00;;;;;;5055452;28;20075;-72
2022/02/06 06:42:34;;;;;;;5.80;1.10;;;11.80;79.40;;;;;;5053446;28;20044;-72
2022/02/06 06:44:59;;;;;;;7.28;1.08;;;11.80;79.60;;;;;;5054828;28;20029;-72
2022/02/06 06:47:25;;;;;;;4.57;1.17;;;11.90;79.70;;;;;;5054899;28;20096;-72
2022/02/06 06:49:51;;;;;;;4.25;0.70;;;11.90;79.70;;;;;;5050036;28;20028;-72
2022/02/06 06:52:16;;;;;;;3.78;0.80;;;11.90;79.70;;;;;;5050752;28;20024;-71
2022/02/06 06:54:49;;;;;;;4.03;0.75;;;12.00;79.70;;;;;;5060108;28;20036;-71
2022/02/06 07:02:27;;;;;;;4.40;1.15;;;11.90;79.00;;;;;;5065957;28;20046;-70
2022/02/06 07:05:03;;;;;;;4.95;0.98;;;11.90;79.30;;;;;;5048099;28;20469;-71
2022/02/06 07:07:29;;;;;;;4.93;1.20;;;11.90;79.20;;;;;;5096714;28;20044;-71
2022/02/06 07:09:54;;;;;;;3.08;1.00;;;11.90;79.50;;;;;;5054328;28;20071;-71
2022/02/06 07:12:20;;;;;;;5.63;1.75;;;11.90;80.10;;;;;;5054422;28;20025;-72
2022/02/06 07:14:47;;;;;;;6.72;1.20;;;11.90;79.50;;;;;;5089608;28;20047;-72
2022/02/06 07:17:14;;;;;;;4.65;0.85;;;12.00;79.50;;;;;;5092734;28;20634;-72
2022/02/06 07:19:41;;;;;;;5.93;1.20;;;11.90;79.80;;;;;;5091028;28;20119;-72
2022/02/06 07:22:11;;;;;;;9.65;1.10;;;12.00;79.40;;;;;;5096420;28;20027;-72
2022/02/06 07:24:37;;;;;;;5.55;1.15;;;11.90;79.40;;;;;;5094590;28;20115;-72
2022/02/06 07:27:14;;;;;;;7.85;1.10;;;11.90;79.50;;;;;;5094323;28;20399;-72
2022/02/06 07:29:40;;;;;;;4.80;1.00;;;11.90;79.80;;;;;;5076495;28;20035;-72
2022/02/06 07:32:06;;;;;;;6.05;1.00;;;12.00;80.10;;;;;;5091577;28;20072;-72
2022/02/06 07:34:31;;;;;;;6.28;0.93;;;12.00;79.50;;;;;;5093626;28;20028;-72
2022/02/06 07:36:57;;;;;;;5.00;0.90;;;11.90;79.20;;;;;;5095269;28;20532;-70
2022/02/06 07:39:23;;;;;;;6.55;1.30;;;12.00;79.50;;;;;;5076197;28;20039;-70
2022/02/06 07:41:48;;;;;;;6.88;0.90;;;11.90;79.30;;;;;;5093198;28;20488;-70
2022/02/06 07:44:14;;;;;;;6.72;0.88;;;12.00;79.30;;;;;;5092703;28;20039;-70
2022/02/06 07:46:45;;;;;;;4.30;0.60;;;11.90;79.50;;;;;;5092209;28;20020;-70
2022/02/06 07:49:11;;;;;;;5.07;1.02;;;11.90;79.40;;;;;;5094369;28;20099;-71
2022/02/06 07:51:39;;;;;;;3.72;1.10;;;12.00;79.50;;;;;;5093872;28;20556;-70
2022/02/06 07:54:05;;;;;;;4.93;0.80;;;12.00;79.50;;;;;;5093911;28;20047;-71
2022/02/06 07:56:30;;;;;;;4.88;1.10;;;12.00;79.20;;;;;;5093984;28;20028;-71
2022/02/06 07:58:56;;;;;;;4.57;1.20;;;12.00;79.10;;;;;;5089908;28;20109;-71
2022/02/06 08:01:22;;;;;;;5.22;0.93;;;12.00;79.20;;;;;;5108725;28;20028;-71
2022/02/06 08:03:47;;;;;;;5.80;0.93;;;12.00;79.10;;;;;;5093962;28;20480;-71
2022/02/06 08:06:14;;;;;;;5.05;1.10;;;12.00;79.20;;;;;;5093283;28;20397;-71
2022/02/06 08:08:40;;;;;;;6.38;1.05;;;12.00;79.10;;;;;;5096870;28;20032;-72
2022/02/06 08:11:11;;;;;;;6.90;2.40;;;12.00;79.00;;;;;;5095017;28;20385;-72
2022/02/06 08:13:43;;;;;;;5.78;1.40;;;12.10;78.60;;;;;;5096736;28;20076;-72
2022/02/06 08:16:09;;;;;;;5.68;1.27;;;12.10;78.60;;;;;;5098065;28;20408;-71
2022/02/06 08:18:39;;;;;;;3.15;1.02;;;12.10;78.20;;;;;;5097575;28;20121;-72
2022/02/06 08:21:09;;;;;;;3.70;0.90;;;12.00;78.10;;;;;;5097450;28;20035;-71
2022/02/06 08:23:35;;;;;;;5.13;1.00;;;12.10;77.90;;;;;;5097793;28;20011;-70
2022/02/06 08:26:01;;;;;;;2.97;0.80;;;12.10;77.90;;;;;;5094116;28;20036;-70
2022/02/06 08:28:26;;;;;;;2.28;0.70;;;12.10;77.90;;;;;;5098432;28;20020;-70
2022/02/06 08:30:52;;;;;;;3.58;0.75;;;12.10;77.80;;;;;;5097998;28;20089;-71
2022/02/06 08:33:18;;;;;;;3.45;0.68;;;12.10;77.70;;;;;;5097013;28;20095;-70
2022/02/06 08:35:45;;;;;;;4.10;1.50;;;12.10;77.30;;;;;;5097434;28;20399;-70
2022/02/06 08:38:12;;;;;;;3.50;1.13;;;12.10;77.30;;;;;;5094985;28;20016;-70
2022/02/06 08:40:38;;;;;;;2.05;0.60;;;12.10;77.10;;;;;;5095611;28;20032;-70
2022/02/06 08:43:04;;;;;;;2.42;0.65;;;12.10;77.30;;;;;;5099033;28;20032;-70
2022/02/06 08:45:30;;;;;;;3.67;0.80;;;12.10;77.20;;;;;;5097022;28;20032;-70
2022/02/06 08:47:56;;;;;;;3.10;0.80;;;12.10;77.20;;;;;;5079034;28;20063;-70
2022/02/06 08:50:22;;;;;;;4.28;0.85;;;12.10;77.40;;;;;;5096498;28;20030;-70
2022/02/06 08:52:48;;;;;;;3.65;0.70;;;12.10;77.10;;;;;;5093700;28;20054;-70
2022/02/06 08:55:14;;;;;;;3.17;0.70;;;12.10;77.20;;;;;;5099023;28;20693;-70
2022/02/06 08:57:47;;;;;;;3.42;0.60;;;12.10;77.10;;;;;;5097264;28;20492;-70
2022/02/06 09:00:14;;;;;;;3.40;0.80;;;12.10;77.40;;;;;;5099321;28;20031;-70
2022/02/06 09:02:40;;;;;;;3.65;0.75;;;12.20;77.40;;;;;;5094909;28;20047;-71
2022/02/06 09:05:06;;;;;;;3.58;0.93;;;12.20;77.40;;;;;;5093667;28;20496;-71
2022/02/06 09:07:32;;;;;;;3.08;0.80;;;12.20;77.30;;;;;;5097256;28;20020;-71
2022/02/06 09:10:01;;;;;;;3.50;0.82;;;12.20;77.50;;;;;;5080634;28;20040;-71
2022/02/06 09:12:28;;;;;;;5.50;0.80;;;12.20;77.60;;;;;;5096343;28;20610;-71
2022/02/06 09:14:55;;;;;;;4.88;1.33;;;12.20;77.90;;;;;;5096504;28;20123;-71
2022/02/06 09:17:21;;;;;;;3.13;0.80;;;12.20;77.70;;;;;;5096031;28;20024;-70
2022/02/06 09:19:48;;;;;;;4.68;0.85;;;12.20;77.80;;;;;;5092934;28;20602;-71
2022/02/06 09:22:14;;;;;;;5.32;1.10;;;12.20;77.60;;;;;;5098494;28;20028;-71
2022/02/06 09:24:41;;;;;;;3.10;0.88;;;12.20;77.80;;;;;;5096080;28;20705;-71
2022/02/06 09:27:08;;;;;;;4.65;0.93;;;12.20;78.10;;;;;;5096238;28;20012;-71
2022/02/06 09:29:35;;;;;;;5.32;0.82;;;12.20;77.80;;;;;;5095723;28;20031;-70
2022/02/06 09:37:09;;;;;;;4.60;1.33;;;12.30;77.90;;;;;;5096398;28;20024;-71
2022/02/06 09:39:39;;;;;;;3.55;0.90;;;12.30;77.90;;;;;;5087033;28;20044;-70
2022/02/06 09:42:06;;;;;;;5.75;1.08;;;12.30;77.70;;;;;;5091784;28;20429;-71
2022/02/06 09:44:32;;;;;;;6.00;1.00;;;12.30;77.70;;;;;;5095878;28;20377;-70
2022/02/06 09:46:58;;;;;;;4.80;1.02;;;12.30;78.00;;;;;;5090389;28;20023;-71
2022/02/06 09:49:26;;;;;;;4.45;0.90;;;12.30;78.00;;;;;;5097557;28;20024;-71
2022/02/06 09:51:52;;;;;;;4.97;0.95;;;12.30;78.20;;;;;;5096110;28;20028;-72
2022/02/06 09:54:20;;;;;;;5.20;1.02;;;12.40;78.00;;;;;;5095848;28;20075;-71
2022/02/06 09:56:50;;;;;;;3.67;1.15;;;12.40;78.10;;;;;;5095878;28;20049;-71
2022/02/06 09:59:20;;;;;;;5.38;1.73;;;12.40;77.80;;;;;;5093906;28;20028;-72
2022/02/06 10:01:50;;;;;;;7.85;2.00;;;12.40;77.90;;;;;;5073134;28;20496;-72
2022/02/06 10:04:19;;;;;;;3.03;1.23;;;12.40;77.60;;;;;;5097303;28;20035;-72
2022/02/06 10:06:57;;;;;;;4.60;1.10;;;12.40;77.90;;;;;;5094029;28;20056;-72
2022/02/06 10:09:31;;;;;;;3.40;0.95;;;12.50;78.10;;;;;;5096125;28;20097;-72
2022/02/06 10:11:58;;;;;;;6.15;1.13;;;12.50;78.20;;;;;;5095021;28;20127;-72
2022/02/06 10:14:24;;;;;;;5.80;0.98;;;12.50;78.20;;;;;;5094411;28;20134;-72
2022/02/06 10:16:53;;;;;;;4.47;0.90;;;12.50;78.40;;;;;;5072666;28;20024;-72
2022/02/06 10:19:19;;;;;;;4.72;1.15;;;12.50;77.90;;;;;;5095755;28;20071;-70
2022/02/06 10:21:46;;;;;;;4.78;1.10;;;12.50;78.90;;;;;;5095541;28;20055;-72
2022/02/06 10:24:22;;;;;;;5.50;1.00;;;12.50;78.30;;;;;;5095117;28;20028;-68
2022/02/06 10:27:03;;;;;;;3.30;0.90;;;12.50;78.60;;;;;;5091628;28;20027;-67
2022/02/06 10:29:52;;;;;;;4.00;1.00;;;12.50;78.30;;;;;;5076111;28;20122;-67
2022/02/06 10:32:19;;;;;;;7.18;1.00;;;12.50;78.70;;;;;;5093085;28;20024;-67
2022/02/06 10:34:46;;;;;;;5.05;0.90;;;12.50;79.00;;;;;;5072850;28;20028;-67
2022/02/06 10:37:19;;;;;;;6.43;0.98;;;12.50;79.30;;;;;;5096535;28;20498;-67
2022/02/06 10:39:57;;;;;;;5.50;1.00;;;12.50;79.20;;;;;;5094296;28;20048;-67
2022/02/06 10:42:26;;;;;;;3.08;0.70;;;12.50;79.20;;;;;;5094327;28;20020;-66
2022/02/06 10:45:18;;;;;;;3.95;0.90;;;12.60;79.20;;;;;;5094425;28;20085;-66
2022/02/06 10:47:52;;;;;;;5.13;0.90;;;12.50;79.70;;;;;;5094436;28;20023;-66
2022/02/06 10:50:20;;;;;;;3.10;0.63;;;12.50;80.20;;;;;;5091526;28;20054;-66
2022/02/06 10:52:46;;;;;;;4.53;0.95;;;12.60;80.50;;;;;;5090817;28;20031;-67
2022/02/06 10:55:15;;;;;;;6.18;1.35;;;12.60;81.10;;;;;;5095903;28;20024;-67
2022/02/06 10:57:56;;;;;;;3.30;0.70;;;12.60;79.90;;;;;;5093960;28;20120;-67
2022/02/06 11:00:30;;;;;;;2.13;0.63;;;12.50;79.70;;;;;;5094138;28;20038;-67
2022/02/06 11:03:05;;;;;;;3.03;0.68;;;12.60;80.30;;;;;;5093977;28;20027;-66
2022/02/06 11:05:53;;;;;;;2.95;0.60;;;12.60;80.40;;;;;;5094125;28;20437;-66
2022/02/06 11:08:32;;;;;;;5.55;1.08;;;12.60;80.50;;;;;;5092688;28;20184;-66
2022/02/06 11:11:09;;;;;;;3.20;1.25;;;12.70;80.60;;;;;;5074072;28;20496;-66
2022/02/06 11:13:36;;;;;;;3.80;1.10;;;12.70;81.00;;;;;;5092982;28;20123;-66
2022/02/06 11:16:14;;;;;;;2.92;0.90;;;12.70;80.80;;;;;;5095411;28;20024;-66
2022/02/06 11:18:50;;;;;;;5.40;1.13;;;12.80;80.90;;;;;;5094100;28;20028;-66
2022/02/06 11:21:19;;;;;;;6.00;0.82;;;12.80;80.50;;;;;;5093549;28;20115;-66
2022/02/06 11:23:48;;;;;;;3.22;0.80;;;12.80;80.90;;;;;;5076175;28;20400;-66
2022/02/06 11:26:19;;;;;;;1.75;0.55;;;12.90;81.00;;;;;;5091275;28;20110;-66
2022/02/06 11:28:46;;;;;;;3.15;0.75;;;12.90;81.10;;;;;;5090677;28;20059;-66
2022/02/06 11:31:13;;;;;;;3.13;1.02;;;12.90;81.30;;;;;;5094263;28;20034;-66
2022/02/06 11:33:39;;;;;;;4.07;0.90;;;13.00;80.80;;;;;;5094183;28;20032;-66
2022/02/06 11:36:14;;;;;;;2.17;0.60;;;13.10;81.70;;;;;;5094016;28;20555;-66
2022/02/06 11:44:27;;;;;;;2.07;0.60;;;13.20;80.60;;;;;;5085060;28;20123;-69
2022/02/06 11:46:58;;;;;;;3.47;0.60;;;13.20;80.80;;;;;;5077769;28;20350;-67
2022/02/06 11:49:25;;;;;;;5.03;1.00;;;13.20;80.50;;;;;;5107846;28;20384;-68
2022/02/06 11:51:57;;;;;;;4.00;0.93;;;13.30;80.80;;;;;;5095167;28;20511;-68
2022/02/06 11:54:28;;;;;;;2.60;0.60;;;13.30;80.50;;;;;;5097007;28;20028;-68
2022/02/06 11:57:23;;;;;;;1.58;0.60;;;13.30;80.70;;;;;;5097712;28;20028;-68
2022/02/06 12:00:07;;;;;;;3.75;0.80;;;13.30;80.80;;;;;;5097592;28;20031;-68
2022/02/06 12:02:37;;;;;;;2.80;0.80;;;13.30;80.60;;;;;;5097093;28;20466;-65
2022/02/06 12:05:08;;;;;;;3.83;0.85;;;13.40;81.70;;;;;;5093650;28;20077;-65
2022/02/06 12:07:52;;;;;;;2.00;0.60;;;13.40;80.80;;;;;;5096653;28;20051;-65
2022/02/06 12:10:50;;;;;;;5.05;0.82;;;13.40;80.90;;;;;;5097591;28;20115;-65
2022/02/06 12:13:24;;;;;;;2.88;0.80;;;13.40;80.40;;;;;;5028418;28;20580;-65
2022/02/06 12:15:55;;;;;;;2.60;0.70;;;13.60;81.40;;;;;;5011236;28;20251;-66
2022/02/06 12:18:31;;;;;;;3.40;0.77;;;13.90;83.20;;;;;;5012031;28;20060;-66
2022/02/06 12:21:14;;;;;;;3.88;1.35;;;14.20;81.00;;;;;;5011570;28;20045;-67
2022/02/06 12:23:52;;;;;;;2.63;0.70;;;14.40;80.60;;;;;;4994911;28;20470;-67
2022/02/06 12:26:32;;;;;;;3.85;0.80;;;14.50;80.20;;;;;;5011497;28;20026;-67
2022/02/06 12:28:59;;;;;;;4.63;0.80;;;14.60;78.90;;;;;;4995842;28;20033;-67
2022/02/06 12:31:29;;;;;;;5.20;0.90;;;14.60;78.90;;;;;;5012344;28;20034;-66
2022/02/06 12:34:10;;;;;;;3.63;0.80;;;14.60;77.70;;;;;;5011954;28;20027;-67
2022/02/06 12:39:27;;;;;;;3.78;0.85;;;15.10;78.30;;;;;;5011425;28;20569;-66
2022/02/06 12:41:55;;;;;;;5.00;0.95;;;15.20;77.90;;;;;;5011358;28;20508;-67
2022/02/06 12:44:24;;;;;;;4.47;0.68;;;15.40;77.10;;;;;;5011860;28;20073;-67
2022/02/06 12:46:50;;;;;;;4.30;0.95;;;15.40;75.90;;;;;;5011437;28;20049;-66
2022/02/06 12:49:20;;;;;;;4.70;1.10;;;15.30;75.30;;;;;;5020850;28;20501;-66
2022/02/06 12:51:46;;;;;;;5.75;1.10;;;15.20;75.40;;;;;;5096232;28;20022;-67
2022/02/06 12:54:16;;;;;;;4.10;0.82;;;15.20;76.40;;;;;;5095691;28;20071;-66
2022/02/06 12:56:43;;;;;;;4.97;1.15;;;15.40;76.40;;;;;;5091292;28;20028;-66
2022/02/06 12:59:10;;;;;;;4.32;1.00;;;15.30;74.90;;;;;;5094805;28;20110;-66
2022/02/06 13:01:42;;;;;;;6.78;1.33;;;15.10;74.50;;;;;;5094955;28;20024;-66
2022/02/06 13:04:10;;;;;;;4.88;1.23;;;14.90;74.80;;;;;;5096780;28;20024;-66
2022/02/06 13:06:41;;;;;;;4.35;1.13;;;14.80;75.40;;;;;;5095463;28;20553;-66
2022/02/06 13:09:16;;;;;;;4.25;0.88;;;14.80;75.30;;;;;;5096333;28;20385;-66
2022/02/06 13:11:48;;;;;;;2.90;0.85;;;14.70;75.50;;;;;;5077967;28;20445;-66
2022/02/06 13:22:52;;;;;;;5.55;0.90;;;15.50;77.30;;;;;;5095805;28;20119;-66
2022/02/06 13:33:30;;;;;;;6.32;1.38;;;15.60;73.40;;;;;;5095728;28;20028;-66
2022/02/06 13:36:15;;;;;;;7.25;1.50;;;15.30;73.50;;;;;;5095593;28;20032;-66
2022/02/06 13:38:42;;;;;;;8.65;1.40;;;15.10;73.50;;;;;;5095512;28;20027;-66
2022/02/06 13:41:13;;;;;;;7.10;1.42;;;15.00;74.40;;;;;;5093023;28;20378;-66
2022/02/06 13:43:42;;;;;;;3.85;1.05;;;14.90;74.20;;;;;;5093228;28;20028;-66
2022/02/06 13:46:24;;;;;;;8.13;1.60;;;14.80;74.30;;;;;;5077716;28;20087;-65
2022/02/06 13:48:50;;;;;;;9.40;1.65;;;14.80;75.00;;;;;;5075892;28;20511;-66
2022/02/06 13:51:22;;;;;;;5.07;1.63;;;14.70;74.60;;;;;;5095356;28;20027;-66
2022/02/06 13:54:00;;;;;;;10.75;1.70;;;14.60;74.60;;;;;;5095459;28;20504;-66
2022/02/06 13:56:28;;;;;;;5.28;1.38;;;14.60;74.80;;;;;;5077273;28;20038;-66
2022/02/06 13:59:18;;;;;;;9.25;1.77;;;14.50;74.90;;;;;;5074650;28;20389;-66
2022/02/06 14:01:53;;;;;;;8.40;1.33;;;14.50;74.80;;;;;;5087756;28;20025;-66
2022/02/06 14:04:21;;;;;;;6.05;1.30;;;14.40;75.10;;;;;;5097159;28;20024;-66
2022/02/06 14:06:53;;;;;;;7.80;1.40;;;14.40;75.20;;;;;;5094381;28;20039;-66
2022/02/06 14:12:19;;;;;;;4.07;1.05;;;14.30;75.20;;;;;;5095425;28;20032;-66
2022/02/06 14:14:48;;;;;;;6.95;1.30;;;14.20;75.70;;;;;;5095141;28;20054;-67
2022/02/06 14:17:27;;;;;;;5.88;1.25;;;14.30;75.70;;;;;;5075210;28;20111;-67
2022/02/06 14:19:57;;;;;;;5.55;1.15;;;14.20;75.80;;;;;;5073856;28;20039;-67
2022/02/06 14:22:29;;;;;;;7.03;1.33;;;14.10;76.20;;;;;;5104575;28;20020;-67
2022/02/06 14:24:57;;;;;;;3.58;1.10;;;14.10;76.30;;;;;;5076730;28;20150;-67
2022/02/06 14:27:43;;;;;;;6.53;1.33;;;14.20;76.70;;;;;;5094914;28;20028;-67
2022/02/06 14:30:13;;;;;;;5.30;1.30;;;14.10;76.60;;;;;;5094606;28;20016;-67
2022/02/06 14:33:03;;;;;;;5.40;1.30;;;14.10;76.90;;;;;;5094946;28;20043;-66
2022/02/06 14:35:42;;;;;;;5.93;1.33;;;14.00;77.20;;;;;;5094514;28;20023;-67
2022/02/06 14:38:12;;;;;;;9.35;1.45;;;14.00;77.70;;;;;;5073961;28;20028;-67
2022/02/06 14:43:14;;;;;;;7.35;1.60;;;14.00;77.90;;;;;;5094803;28;20059;-67
2022/02/06 14:45:48;;;;;;;7.50;1.65;;;13.90;77.80;;;;;;5093342;28;20126;-66
2022/02/06 14:48:14;;;;;;;7.45;1.58;;;14.00;78.00;;;;;;5094637;28;20023;-66
2022/02/06 14:50:44;;;;;;;6.85;1.40;;;14.00;77.90;;;;;;5094282;28;20028;-66
2022/02/06 14:53:10;;;;;;;9.55;1.67;;;14.00;78.40;;;;;;5089133;28;20070;-66
2022/02/06 14:55:36;;;;;;;10.27;1.55;;;14.00;78.40;;;;;;5072600;28;20401;-67
2022/02/06 14:58:02;;;;;;;7.53;1.63;;;14.00;77.80;;;;;;5078114;28;20094;-66
2022/02/06 15:00:27;;;;;;;5.32;1.10;;;14.10;78.30;;;;;;5094520;28;20047;-67
2022/02/06 15:02:53;;;;;;;5.43;1.15;;;14.10;78.10;;;;;;5094202;28;20031;-69
2022/02/06 15:05:19;;;;;;;5.10;1.30;;;14.10;78.10;;;;;;5094526;28;20119;-68
2022/02/06 15:07:44;;;;;;;8.00;1.30;;;14.20;78.20;;;;;;5091249;28;20062;-68
2022/02/06 15:10:10;;;;;;;6.22;1.45;;;14.20;78.50;;;;;;5096712;28;20099;-68
2022/02/06 15:12:35;;;;;;;7.15;1.58;;;14.20;78.00;;;;;;5094545;28;20105;-69
2022/02/06 15:15:02;;;;;;;5.65;1.30;;;14.20;77.90;;;;;;5094236;28;20071;-69
2022/02/06 15:17:29;;;;;;;7.88;1.70;;;14.20;78.20;;;;;;5093918;28;20023;-69
2022/02/06 15:19:54;;;;;;;6.75;1.40;;;14.20;78.20;;;;;;5071708;28;20440;-68
2022/02/06 15:22:20;;;;;;;7.28;1.50;;;14.10;77.60;;;;;;5077249;28;20028;-68
2022/02/06 15:24:46;;;;;;;10.40;1.65;;;14.10;78.10;;;;;;5093340;28;20036;-68
2022/02/06 15:27:12;;;;;;;5.80;1.33;;;14.00;78.30;;;;;;5094024;28;20443;-71
2022/02/06 15:29:37;;;;;;;5.95;1.55;;;14.00;79.50;;;;;;5088508;28;20024;-72
2022/02/06 15:32:03;;;;;;;9.05;1.52;;;14.10;79.60;;;;;;5095297;28;20545;-67
2022/02/06 15:34:30;;;;;;;9.43;1.90;;;14.20;80.50;;;;;;5094105;28;20059;-67
2022/02/06 15:37:01;;;;;;;6.20;1.45;;;14.30;79.50;;;;;;5095176;28;20491;-67
2022/02/06 15:39:35;;;;;;;7.47;1.42;;;14.40;79.10;;;;;;5094381;28;20560;-67
2022/02/06 15:42:16;;;;;;;4.63;1.00;;;14.40;80.00;;;;;;5094249;28;20035;-67
2022/02/06 15:44:46;;;;;;;5.63;1.27;;;14.40;78.70;;;;;;5094786;28;20088;-67
2022/02/06 15:47:12;;;;;;;6.90;1.65;;;14.40;78.70;;;;;;5073447;28;20020;-66
2022/02/06 15:49:39;;;;;;;5.35;1.10;;;14.50;78.60;;;;;;5092423;28;20528;-66